Time;durP1;ratioP1;P1;durP2;ratioP2;P2;SDS_P1;SDS_P2;PMS_P1;PMS_P2;Temp;Humidity;BMP_temperature;BMP_pressure;BME280_temperature;BME280_humidity;BME280_pressure;Samples;Min_cycle;Max_cycle;Signal;HPM_P1;HPM_P2
2022/05/10 00:00:39;;;;;;;;;;;;;;;22.25;32.54;102193.91;2075233;28;791;-57
2022/05/10 00:01:40;;;;;;;;;;;;;;;22.24;32.42;102193.03;2075203;28;804;-57
2022/05/10 00:02:40;;;;;;;;;;;;;;;22.23;32.38;102188.56;2075164;28;985;-58
2022/05/10 00:03:40;;;;;;;;;;;;;;;22.24;32.73;102179.56;2075215;28;756;-57
2022/05/10 00:04:42;;;;;;;;;;;;;;;22.24;32.60;102187.66;2075180;28;993;-57
2022/05/10 00:05:43;;;;;;;;;;;;;;;22.23;32.44;102179.56;2075189;28;871;-57
2022/05/10 00:06:45;;;;;;;;;;;;;;;22.21;32.71;102185.88;2075207;28;843;-58
2022/05/10 00:07:45;;;;;;;;;;;;;;;22.21;33.13;102179.59;2075184;28;1092;-58
2022/05/10 00:08:45;;;;;;;;;;;;;;;22.21;33.03;102185.00;2075193;28;1036;-57
2022/05/10 00:09:45;;;;;;;;;;;;;;;22.20;33.33;102181.41;2075093;28;1953;-57
2022/05/10 00:10:46;;;;;;;;;;;;;;;22.18;32.60;102176.97;2075168;28;975;-58
2022/05/10 00:11:46;;;;;;;;;;;;;;;22.19;32.65;102181.44;2074661;28;914;-58
2022/05/10 00:12:46;;;;;;;;;;;;;;;22.19;32.65;102176.91;2074650;28;933;-58
2022/05/10 00:13:46;;;;;;;;;;;;;;;22.18;32.53;102171.56;2075159;28;804;-58
2022/05/10 00:14:47;;;;;;;;;;;;;;;22.18;33.31;102182.38;2075096;28;1029;-58
2022/05/10 00:15:47;;;;;;;;;;;;;;;22.18;32.73;102180.53;2082584;28;950;-58
2022/05/10 00:16:51;;;;;;;;;;;;;;;22.18;32.71;102180.53;2082705;28;831;-58
2022/05/10 00:17:51;;;;;;;;;;;;;;;22.17;33.53;102177.88;2075113;28;819;-58
2022/05/10 00:18:51;;;;;;;;;;;;;;;22.16;33.55;102176.97;2075072;28;1029;-58
2022/05/10 00:19:52;;;;;;;;;;;;;;;22.16;32.63;102171.59;2082565;28;870;-58
2022/05/10 00:20:52;;;;;;;;;;;;;;;22.15;32.75;102167.09;2082735;28;796;-58
2022/05/10 00:21:52;;;;;;;;;;;;;;;22.16;33.02;102171.59;2075894;28;986;-57
2022/05/10 00:22:53;;;;;;;;;;;;;;;22.15;33.52;102168.94;2075419;28;885;-57
2022/05/10 00:23:53;;;;;;;;;;;;;;;22.15;32.91;102168.94;2075096;28;977;-58
2022/05/10 00:24:53;;;;;;;;;;;;;;;22.14;32.71;102168.03;2082576;28;906;-58
2022/05/10 00:25:53;;;;;;;;;;;;;;;22.14;33.54;102169.84;2082638;28;982;-57
2022/05/10 00:26:55;;;;;;;;;;;;;;;22.14;33.64;102167.16;2075078;28;1102;-57
2022/05/10 00:27:56;;;;;;;;;;;;;;;22.14;32.94;102169.84;2075002;28;874;-58
2022/05/10 00:28:56;;;;;;;;;;;;;;;22.13;32.87;102168.94;2075122;28;826;-58
2022/05/10 00:29:56;;;;;;;;;;;;;;;22.13;32.98;102166.25;2074952;28;1907;-58
2022/05/10 00:30:56;;;;;;;;;;;;;;;22.13;32.96;102165.38;2074971;28;1069;-58
2022/05/10 00:31:56;;;;;;;;;;;;;;;22.12;33.03;102167.16;2074981;28;1044;-58
2022/05/10 00:32:56;;;;;;;;;;;;;;;22.12;32.99;102168.97;2074952;28;978;-58
2022/05/10 00:33:58;;;;;;;;;;;;;;;22.11;33.43;102165.38;2074945;28;899;-57
2022/05/10 00:34:58;;;;;;;;;;;;;;;22.10;33.04;102169.00;2075039;28;966;-58
2022/05/10 00:35:58;;;;;;;;;;;;;;;22.11;33.70;102164.50;2074932;28;902;-57
2022/05/10 00:36:58;;;;;;;;;;;;;;;22.10;32.90;102160.91;2075014;28;1219;-57
2022/05/10 00:37:59;;;;;;;;;;;;;;;22.11;33.76;102156.41;2074969;28;844;-58
2022/05/10 00:39:00;;;;;;;;;;;;;;;22.10;33.71;102163.59;2074930;28;843;-58
2022/05/10 00:40:00;;;;;;;;;;;;;;;22.11;33.73;102153.72;2074912;28;891;-57
2022/05/10 00:41:14;;;;;;;;;;;;;;;22.10;33.75;102160.91;2074897;28;784;-58
2022/05/10 00:42:25;;;;;;;;;;;;;;;22.09;33.76;102156.41;2074992;28;1002;-57
2022/05/10 00:43:29;;;;;;;;;;;;;;;22.09;33.54;102153.72;2074945;28;902;-57
2022/05/10 00:44:45;;;;;;;;;;;;;;;22.09;33.10;102159.13;2074946;28;1028;-57
2022/05/10 00:45:57;;;;;;;;;;;;;;;22.09;33.17;102155.56;2074909;28;772;-57
2022/05/10 00:47:09;;;;;;;;;;;;;;;22.09;34.00;102158.25;2074948;28;1033;-57
2022/05/10 00:48:19;;;;;;;;;;;;;;;22.08;33.22;102157.34;2074949;28;918;-57
2022/05/10 00:49:37;;;;;;;;;;;;;;;22.08;33.71;102151.06;2074871;28;967;-58
2022/05/10 00:50:40;;;;;;;;;;;;;;;22.06;33.65;102152.00;2074909;28;847;-57
2022/05/10 00:52:01;;;;;;;;;;;;;;;22.06;33.70;102152.00;2074815;28;963;-57
2022/05/10 00:53:22;;;;;;;;;;;;;;;22.04;33.08;102145.72;2082426;28;1295;-57
2022/05/10 00:54:31;;;;;;;;;;;;;;;22.04;34.25;102148.44;2074206;28;1491;-58
2022/05/10 00:55:36;;;;;;;;;;;;;;;22.04;33.19;102143.03;2074409;28;720;-57
2022/05/10 00:56:36;;;;;;;;;;;;;;;22.04;33.42;102143.03;2074846;28;1029;-57
2022/05/10 00:57:42;;;;;;;;;;;;;;;22.05;33.35;102143.94;2074796;28;1022;-57
2022/05/10 00:58:56;;;;;;;;;;;;;;;22.05;33.56;102139.41;2074821;28;780;-58
2022/05/10 01:00:02;;;;;;;;;;;;;;;22.05;33.14;102135.84;2074851;28;1057;-57
2022/05/10 01:01:03;;;;;;;;;;;;;;;22.04;33.50;102131.38;2074789;28;1014;-57
2022/05/10 01:02:11;;;;;;;;;;;;;;;22.04;33.30;102132.25;2074946;28;835;-58
2022/05/10 01:03:22;;;;;;;;;;;;;;;22.03;33.21;102129.59;2074835;28;1045;-57
2022/05/10 01:04:27;;;;;;;;;;;;;;;22.03;33.34;102127.75;2074853;28;889;-57
2022/05/10 01:05:34;;;;;;;;;;;;;;;22.03;33.16;102129.59;2074978;28;790;-57
2022/05/10 01:06:39;;;;;;;;;;;;;;;22.03;34.11;102132.28;2074786;28;875;-57
2022/05/10 01:07:52;;;;;;;;;;;;;;;22.03;33.40;102124.19;2074896;28;922;-58
2022/05/10 01:08:52;;;;;;;;;;;;;;;22.03;33.54;102129.59;2074859;28;819;-58
2022/05/10 01:09:54;;;;;;;;;;;;;;;22.01;33.47;102121.50;2074765;28;1886;-57
2022/05/10 01:11:07;;;;;;;;;;;;;;;22.02;33.38;102135.91;2082644;28;855;-57
2022/05/10 01:12:11;;;;;;;;;;;;;;;22.02;34.08;102125.97;2080933;28;807;-57
2022/05/10 01:13:17;;;;;;;;;;;;;;;22.02;33.41;102128.69;2074767;28;886;-57
2022/05/10 01:14:31;;;;;;;;;;;;;;;22.01;33.30;102126.91;2074714;28;978;-58
2022/05/10 01:15:33;;;;;;;;;;;;;;;22.01;33.77;102118.81;2074785;28;926;-58
2022/05/10 01:16:33;;;;;;;;;;;;;;;22.00;34.24;102118.84;2074697;28;958;-57
2022/05/10 01:17:33;;;;;;;;;;;;;;;22.01;33.63;102117.94;2074762;28;856;-58
2022/05/10 01:18:34;;;;;;;;;;;;;;;22.01;33.58;102113.41;2074774;28;773;-58
2022/05/10 01:19:34;;;;;;;;;;;;;;;22.01;33.63;102116.09;2074716;28;855;-57
2022/05/10 01:20:41;;;;;;;;;;;;;;;22.00;33.70;102110.75;2074691;28;1045;-57
2022/05/10 01:22:00;;;;;;;;;;;;;;;21.99;33.37;102108.97;2074740;28;897;-57
2022/05/10 01:23:18;;;;;;;;;;;;;;;22.00;33.68;102121.56;2074673;28;871;-58
2022/05/10 01:24:23;;;;;;;;;;;;;;;21.99;33.63;102107.16;2074710;28;839;-58
2022/05/10 01:25:26;;;;;;;;;;;;;;;22.01;33.41;102104.44;2074719;28;974;-57
2022/05/10 01:26:26;;;;;;;;;;;;;;;22.00;33.60;102105.38;2074593;28;1216;-58
2022/05/10 01:27:39;;;;;;;;;;;;;;;22.00;34.12;102106.22;2074704;28;792;-57
2022/05/10 01:28:41;;;;;;;;;;;;;;;22.01;33.81;102112.53;2074781;28;875;-58
2022/05/10 01:29:51;;;;;;;;;;;;;;;21.99;34.32;102104.47;2074612;28;1980;-57
2022/05/10 01:30:52;;;;;;;;;;;;;;;21.99;33.48;102099.06;2074728;28;981;-57
2022/05/10 01:33:30;;;;;;;;;;;;;;;21.98;33.58;102094.59;2074724;28;689;-58
2022/05/10 01:34:30;;;;;;;;;;;;;;;21.99;33.60;102095.50;2074718;28;878;-57
2022/05/10 01:35:32;;;;;;;;;;;;;;;21.98;33.86;102097.28;2074690;28;791;-57
2022/05/10 01:36:37;;;;;;;;;;;;;;;21.98;33.48;102091.00;2074711;28;791;-57
2022/05/10 01:37:39;;;;;;;;;;;;;;;21.98;33.76;102091.88;2074644;28;888;-57
2022/05/10 01:38:48;;;;;;;;;;;;;;;21.98;33.63;102085.63;2074843;28;772;-58
2022/05/10 01:39:55;;;;;;;;;;;;;;;21.97;33.71;102090.09;2074643;28;1018;-57
2022/05/10 01:40:57;;;;;;;;;;;;;;;21.98;33.55;102088.31;2074707;28;780;-57
2022/05/10 01:42:05;;;;;;;;;;;;;;;21.97;33.97;102090.09;2074653;28;986;-57
2022/05/10 01:43:09;;;;;;;;;;;;;;;21.97;33.75;102091.94;2074656;28;764;-57
2022/05/10 01:44:23;;;;;;;;;;;;;;;21.96;33.99;102085.63;2074739;28;985;-57
2022/05/10 01:45:25;;;;;;;;;;;;;;;21.98;34.43;102085.63;2074761;28;879;-57
2022/05/10 01:46:28;;;;;;;;;;;;;;;21.98;34.32;102088.31;2074607;28;855;-58
2022/05/10 01:47:34;;;;;;;;;;;;;;;21.97;34.27;102083.84;2074615;28;938;-57
2022/05/10 01:48:35;;;;;;;;;;;;;;;21.96;34.37;102087.47;2074659;28;791;-57
2022/05/10 01:49:54;;;;;;;;;;;;;;;21.97;33.77;102094.63;2074675;28;1955;-58
2022/05/10 01:50:56;;;;;;;;;;;;;;;21.96;33.54;102090.16;2074629;28;792;-58
2022/05/10 01:52:02;;;;;;;;;;;;;;;21.96;33.49;102082.06;2074651;28;807;-57
2022/05/10 01:53:11;;;;;;;;;;;;;;;21.96;34.43;102085.63;2074621;28;932;-57
2022/05/10 01:54:40;;;;;;;;;;;;;;;21.96;33.98;102084.75;2074662;28;861;-58
2022/05/10 01:55:45;;;;;;;;;;;;;;;21.95;33.64;102083.84;2074580;28;1355;-57
2022/05/10 01:56:45;;;;;;;;;;;;;;;21.95;33.64;102089.25;2074837;28;978;-57
2022/05/10 01:57:45;;;;;;;;;;;;;;;21.95;33.84;102091.06;2074595;28;1049;-57
2022/05/10 01:58:46;;;;;;;;;;;;;;;21.95;34.16;102080.28;2074551;28;867;-57
2022/05/10 01:59:51;;;;;;;;;;;;;;;21.95;33.72;102088.38;2082040;28;1202;-57
2022/05/10 02:00:57;;;;;;;;;;;;;;;21.95;34.16;102085.69;2081690;28;878;-58
2022/05/10 02:01:58;;;;;;;;;;;;;;;21.94;34.12;102084.78;2074586;28;1029;-58
2022/05/10 02:03:05;;;;;;;;;;;;;;;21.95;33.59;102077.59;2074585;28;1052;-58
2022/05/10 02:04:08;;;;;;;;;;;;;;;21.94;34.28;102075.81;2074533;28;927;-58
2022/05/10 02:05:11;;;;;;;;;;;;;;;21.94;33.65;102073.09;2074598;28;819;-57
2022/05/10 02:06:23;;;;;;;;;;;;;;;21.94;33.61;102068.59;2074577;28;906;-58
2022/05/10 02:07:24;;;;;;;;;;;;;;;21.94;34.05;102071.28;2074556;28;800;-58
2022/05/10 02:08:29;;;;;;;;;;;;;;;21.93;33.65;102066.81;2074562;28;946;-58
2022/05/10 02:09:36;;;;;;;;;;;;;;;21.93;34.04;102066.81;2074511;28;985;-58
2022/05/10 02:10:38;;;;;;;;;;;;;;;21.93;34.55;102061.41;2074564;28;780;-58
2022/05/10 02:11:47;;;;;;;;;;;;;;;21.93;33.74;102061.41;2074545;28;800;-58
2022/05/10 02:13:05;;;;;;;;;;;;;;;21.94;34.31;102062.31;2074568;28;927;-58
2022/05/10 02:14:08;;;;;;;;;;;;;;;21.92;34.28;102060.53;2074562;28;768;-57
2022/05/10 02:15:16;;;;;;;;;;;;;;;21.92;33.96;102059.63;2074525;28;997;-57
2022/05/10 02:16:20;;;;;;;;;;;;;;;21.94;33.69;102062.31;2074542;28;886;-58
2022/05/10 02:17:40;;;;;;;;;;;;;;;21.93;34.00;102061.41;2074503;28;860;-57
2022/05/10 02:18:50;;;;;;;;;;;;;;;21.94;34.27;102057.78;2057319;28;1146;-57
2022/05/10 02:19:50;;;;;;;;;;;;;;;21.94;34.51;102059.63;2057326;28;1018;-57
2022/05/10 02:21:03;;;;;;;;;;;;;;;21.93;34.54;102064.09;2057325;28;963;-58
2022/05/10 02:22:07;;;;;;;;;;;;;;;21.92;34.25;102054.22;2057367;28;1123;-57
2022/05/10 02:23:14;;;;;;;;;;;;;;;21.94;33.87;102052.41;2057372;28;788;-57
2022/05/10 02:24:33;;;;;;;;;;;;;;;21.94;34.14;102048.81;2057314;28;1225;-57
2022/05/10 02:25:36;;;;;;;;;;;;;;;21.92;34.07;102051.53;2049328;29;883;-58
2022/05/10 02:26:39;;;;;;;;;;;;;;;21.93;34.67;102045.22;2049457;28;1285;-57
2022/05/10 02:27:48;;;;;;;;;;;;;;;21.93;33.86;102047.91;2057396;28;983;-57
2022/05/10 02:28:55;;;;;;;;;;;;;;;21.93;33.85;102045.22;2057368;28;986;-57
2022/05/10 02:30:01;;;;;;;;;;;;;;;21.91;33.98;102045.28;2057272;28;1914;-57
2022/05/10 02:31:05;;;;;;;;;;;;;;;21.92;34.15;102043.44;2057335;28;1140;-57
2022/05/10 02:33:40;;;;;;;;;;;;;;;21.91;34.51;102050.66;2057337;28;649;-58
2022/05/10 02:34:42;;;;;;;;;;;;;;;21.92;33.87;102046.13;2057362;28;895;-58
2022/05/10 02:35:45;;;;;;;;;;;;;;;21.92;33.75;102043.44;2057808;28;962;-57
2022/05/10 02:36:46;;;;;;;;;;;;;;;21.92;34.07;102046.13;2058681;28;874;-57
2022/05/10 02:37:46;;;;;;;;;;;;;;;21.92;34.12;102041.66;2058692;28;1299;-58
2022/05/10 02:38:46;;;;;;;;;;;;;;;21.92;34.38;102044.34;2058698;28;875;-57
2022/05/10 02:39:47;;;;;;;;;;;;;;;21.90;34.13;102030.00;2058741;28;832;-57
2022/05/10 02:40:47;;;;;;;;;;;;;;;21.91;34.28;102037.19;2058741;28;876;-57
2022/05/10 02:41:47;;;;;;;;;;;;;;;21.91;34.64;102036.28;2058722;28;777;-57
2022/05/10 02:42:49;;;;;;;;;;;;;;;21.90;34.60;102034.50;2058719;28;853;-57
2022/05/10 02:43:52;;;;;;;;;;;;;;;21.91;34.23;102037.19;2058673;28;1070;-57
2022/05/10 02:44:55;;;;;;;;;;;;;;;21.90;34.65;102035.41;2059642;28;889;-57
2022/05/10 02:45:55;;;;;;;;;;;;;;;21.91;34.41;102041.66;2059841;28;863;-58
2022/05/10 02:46:57;;;;;;;;;;;;;;;21.90;33.95;102040.78;2058689;28;838;-58
2022/05/10 02:48:00;;;;;;;;;;;;;;;21.90;33.92;102039.88;2058670;28;805;-58
2022/05/10 02:49:00;;;;;;;;;;;;;;;21.91;34.37;102033.56;2058665;28;1065;-57
2022/05/10 02:50:00;;;;;;;;;;;;;;;21.90;34.35;102037.19;2058592;28;1899;-57
2022/05/10 02:51:01;;;;;;;;;;;;;;;21.90;33.92;102029.09;2058611;28;821;-57
2022/05/10 02:52:02;;;;;;;;;;;;;;;21.89;34.72;102033.63;2058609;28;876;-58
2022/05/10 02:53:02;;;;;;;;;;;;;;;21.88;34.79;102031.84;2058628;28;986;-57
2022/05/10 02:54:02;;;;;;;;;;;;;;;21.89;34.18;102022.81;2058588;28;998;-57
2022/05/10 02:55:08;;;;;;;;;;;;;;;21.89;33.90;102027.31;2058626;28;836;-57
2022/05/10 02:56:21;;;;;;;;;;;;;;;21.88;34.82;102018.34;2060764;28;1212;-58
2022/05/10 02:57:23;;;;;;;;;;;;;;;21.88;34.11;102020.16;2075811;28;828;-57
2022/05/10 02:58:31;;;;;;;;;;;;;;;21.88;34.04;102026.44;2075670;28;887;-57
2022/05/10 02:59:33;;;;;;;;;;;;;;;21.89;34.71;102027.31;2075899;28;843;-58
2022/05/10 03:00:34;;;;;;;;;;;;;;;21.89;34.23;102030.00;2075703;28;847;-58
2022/05/10 03:01:40;;;;;;;;;;;;;;;21.89;34.17;102030.91;2075699;28;1068;-57
2022/05/10 03:02:43;;;;;;;;;;;;;;;21.88;34.49;102021.06;2075659;28;919;-57
2022/05/10 03:03:43;;;;;;;;;;;;;;;21.89;34.40;102024.63;2075695;28;1053;-57
2022/05/10 03:04:49;;;;;;;;;;;;;;;21.89;33.99;102024.63;2075650;28;974;-58
2022/05/10 03:05:51;;;;;;;;;;;;;;;21.89;34.71;102022.81;2075695;28;929;-57
2022/05/10 03:06:52;;;;;;;;;;;;;;;21.87;34.57;102023.75;2075804;28;768;-57
2022/05/10 03:07:53;;;;;;;;;;;;;;;21.89;34.82;102020.13;2075593;28;911;-57
2022/05/10 03:08:53;;;;;;;;;;;;;;;21.89;34.13;102025.53;2075639;28;811;-57
2022/05/10 03:09:54;;;;;;;;;;;;;;;21.88;33.97;102021.06;2075588;28;1951;-57
2022/05/10 03:10:54;;;;;;;;;;;;;;;21.87;34.74;102016.56;2075596;28;1053;-57
2022/05/10 03:11:54;;;;;;;;;;;;;;;21.88;34.17;102007.56;2075640;28;953;-57
2022/05/10 03:12:54;;;;;;;;;;;;;;;21.88;34.23;102012.97;2075590;28;974;-58
2022/05/10 03:13:55;;;;;;;;;;;;;;;21.88;34.17;102014.75;2083142;28;859;-58
2022/05/10 03:14:55;;;;;;;;;;;;;;;21.86;34.01;102012.09;2083187;28;850;-57
2022/05/10 03:15:55;;;;;;;;;;;;;;;21.87;34.13;102013.88;2075638;28;796;-57
2022/05/10 03:16:56;;;;;;;;;;;;;;;21.86;34.75;102008.50;2075580;28;978;-58
2022/05/10 03:17:56;;;;;;;;;;;;;;;21.88;34.09;102017.44;2075559;28;890;-58
2022/05/10 03:18:57;;;;;;;;;;;;;;;21.88;33.99;102018.34;2075598;28;965;-57
2022/05/10 03:19:57;;;;;;;;;;;;;;;21.87;34.01;102016.56;2075513;28;757;-57
2022/05/10 03:20:57;;;;;;;;;;;;;;;21.88;34.14;102014.75;2075574;28;859;-57
2022/05/10 03:21:57;;;;;;;;;;;;;;;21.87;34.71;102011.19;2075523;28;1176;-57
2022/05/10 03:22:58;;;;;;;;;;;;;;;21.88;34.59;102017.44;2075524;28;1041;-57
2022/05/10 03:23:58;;;;;;;;;;;;;;;21.88;34.93;102009.34;2075543;28;813;-57
2022/05/10 03:24:58;;;;;;;;;;;;;;;21.89;34.64;102013.81;2075693;28;745;-57
2022/05/10 03:25:59;;;;;;;;;;;;;;;21.88;34.36;102012.06;2075518;28;839;-58
2022/05/10 03:27:00;;;;;;;;;;;;;;;21.86;34.13;102009.41;2075219;28;1320;-57
2022/05/10 03:28:00;;;;;;;;;;;;;;;21.88;34.29;102009.34;2075529;28;1173;-57
2022/05/10 03:29:00;;;;;;;;;;;;;;;21.85;35.01;102004.03;2075519;28;807;-57
2022/05/10 03:30:02;;;;;;;;;;;;;;;21.86;34.29;102011.19;2075445;28;1910;-58
2022/05/10 03:31:10;;;;;;;;;;;;;;;21.86;34.63;102011.19;2075451;28;803;-57
2022/05/10 03:32:10;;;;;;;;;;;;;;;21.86;34.15;101992.31;2075445;28;871;-57
2022/05/10 03:33:11;;;;;;;;;;;;;;;21.85;34.29;102009.41;2083123;28;821;-57
2022/05/10 03:35:30;;;;;;;;;;;;;;;21.87;35.09;102002.19;2075565;28;606;-57
2022/05/10 03:36:30;;;;;;;;;;;;;;;21.86;34.87;101997.72;2075548;28;709;-57
2022/05/10 03:37:31;;;;;;;;;;;;;;;21.87;34.98;101999.47;2075401;28;860;-57
2022/05/10 03:38:31;;;;;;;;;;;;;;;21.86;34.30;101998.63;2075433;28;863;-58
2022/05/10 03:39:31;;;;;;;;;;;;;;;21.86;34.39;102003.09;2075482;28;690;-58
2022/05/10 03:40:31;;;;;;;;;;;;;;;21.86;34.67;101998.63;2075374;28;839;-57
2022/05/10 03:41:31;;;;;;;;;;;;;;;21.85;34.51;101995.94;2075355;28;887;-57
2022/05/10 03:42:32;;;;;;;;;;;;;;;21.84;34.62;101996.84;2075389;28;1006;-57
2022/05/10 03:43:33;;;;;;;;;;;;;;;21.85;34.97;102004.03;2075316;28;890;-58
2022/05/10 03:44:34;;;;;;;;;;;;;;;21.86;34.44;101997.72;2075352;28;820;-58
2022/05/10 03:45:35;;;;;;;;;;;;;;;21.86;34.81;102000.41;2075375;28;846;-57
2022/05/10 03:46:36;;;;;;;;;;;;;;;21.86;34.32;101995.91;2075089;28;768;-57
2022/05/10 03:47:36;;;;;;;;;;;;;;;21.86;34.41;101992.31;2075311;28;1102;-57
2022/05/10 03:48:36;;;;;;;;;;;;;;;21.88;35.11;101995.88;2075379;28;870;-57
2022/05/10 03:49:36;;;;;;;;;;;;;;;21.87;34.65;102003.09;2075259;28;1989;-57
2022/05/10 03:50:36;;;;;;;;;;;;;;;21.86;35.10;101998.63;2075328;28;1028;-57
2022/05/10 03:51:37;;;;;;;;;;;;;;;21.86;35.17;101995.00;2075291;28;768;-58
2022/05/10 03:52:38;;;;;;;;;;;;;;;21.86;34.65;101998.63;2075285;28;938;-58
2022/05/10 03:53:38;;;;;;;;;;;;;;;21.86;35.04;101987.81;2075297;28;787;-57
2022/05/10 03:54:38;;;;;;;;;;;;;;;21.86;34.60;101997.72;2075283;28;790;-57
2022/05/10 03:55:38;;;;;;;;;;;;;;;21.86;34.62;101992.31;2075289;28;867;-58
2022/05/10 03:56:39;;;;;;;;;;;;;;;21.88;34.59;101991.38;2082794;28;1378;-57
2022/05/10 03:57:39;;;;;;;;;;;;;;;21.86;34.51;101992.31;2082853;28;1248;-57
2022/05/10 03:58:39;;;;;;;;;;;;;;;21.86;34.54;101993.22;2075335;28;977;-58
2022/05/10 03:59:42;;;;;;;;;;;;;;;21.86;34.77;101995.91;2075240;28;820;-57
2022/05/10 04:00:43;;;;;;;;;;;;;;;21.86;34.81;101984.22;2075244;28;867;-58
2022/05/10 04:01:44;;;;;;;;;;;;;;;22.65;33.69;101985.22;2075212;28;647;-58
2022/05/10 04:02:44;;;;;;;;;;;;;;;23.43;32.67;101980.53;2075238;28;812;-58
2022/05/10 04:03:44;;;;;;;;;;;;;;;23.84;31.10;101984.75;2075249;28;824;-57
2022/05/10 04:04:45;;;;;;;;;;;;;;;24.12;30.58;101978.56;2075240;28;989;-56
2022/05/10 04:05:45;;;;;;;;;;;;;;;24.48;30.27;101979.28;2075158;28;994;-57
2022/05/10 04:06:45;;;;;;;;;;;;;;;24.77;30.19;101985.56;2075162;28;990;-57
2022/05/10 04:07:45;;;;;;;;;;;;;;;25.05;29.64;101979.22;2075197;28;812;-57
2022/05/10 04:08:46;;;;;;;;;;;;;;;25.21;28.71;101980.47;2075199;28;764;-57
2022/05/10 04:09:46;;;;;;;;;;;;;;;25.37;28.96;101979.91;2075112;28;1963;-56
2022/05/10 04:10:46;;;;;;;;;;;;;;;25.53;28.72;101983.88;2075163;28;784;-57
2022/05/10 04:11:46;;;;;;;;;;;;;;;25.68;28.16;101979.69;2075137;28;919;-57
2022/05/10 04:12:46;;;;;;;;;;;;;;;25.97;28.22;101983.13;2075148;28;827;-57
2022/05/10 04:13:47;;;;;;;;;;;;;;;26.10;27.68;101983.53;2082611;28;962;-57
2022/05/10 04:14:47;;;;;;;;;;;;;;;26.18;27.56;101981.44;2082758;28;769;-57
2022/05/10 04:15:47;;;;;;;;;;;;;;;26.41;27.12;101957.91;2075193;28;1018;-57
2022/05/10 04:16:47;;;;;;;;;;;;;;;26.46;27.48;101966.75;2074443;28;1009;-57
2022/05/10 04:17:47;;;;;;;;;;;;;;;26.63;27.08;101967.88;2074548;28;836;-57
2022/05/10 04:18:47;;;;;;;;;;;;;;;26.67;26.69;101969.53;2076135;28;859;-57
2022/05/10 04:19:48;;;;;;;;;;;;;;;26.77;27.01;101960.03;2075796;28;1030;-57
2022/05/10 04:20:48;;;;;;;;;;;;;;;26.99;26.33;101966.41;2075061;28;800;-57
2022/05/10 04:21:49;;;;;;;;;;;;;;;27.09;26.41;101959.63;2075085;28;888;-59
2022/05/10 04:22:49;;;;;;;;;;;;;;;27.22;26.18;101954.53;2075193;28;783;-58
2022/05/10 04:23:49;;;;;;;;;;;;;;;27.35;25.85;101966.63;2075011;28;833;-57
2022/05/10 04:24:49;;;;;;;;;;;;;;;27.37;26.03;101953.84;2075052;28;982;-57
2022/05/10 04:25:49;;;;;;;;;;;;;;;27.52;25.96;101952.28;2075158;28;705;-58
2022/05/10 04:26:50;;;;;;;;;;;;;;;27.61;25.96;101956.44;2074894;28;1071;-57
2022/05/10 04:27:53;;;;;;;;;;;;;;;27.61;25.74;101952.81;2075016;28;824;-57
2022/05/10 04:28:54;;;;;;;;;;;;;;;27.75;25.13;101952.16;2075079;28;890;-57
2022/05/10 04:29:55;;;;;;;;;;;;;;;27.72;25.27;101947.75;2074960;28;2001;-57
2022/05/10 04:30:55;;;;;;;;;;;;;;;27.90;25.61;101947.88;2074974;28;832;-57
2022/05/10 04:31:55;;;;;;;;;;;;;;;27.96;24.97;101942.13;2074998;28;1049;-57
2022/05/10 04:32:55;;;;;;;;;;;;;;;28.04;25.14;101949.91;2075005;28;1034;-57
2022/05/10 04:33:55;;;;;;;;;;;;;;;28.03;25.04;101954.47;2074347;28;970;-57
2022/05/10 04:34:55;;;;;;;;;;;;;;;28.19;25.19;101951.03;2074404;28;709;-57
2022/05/10 04:35:56;;;;;;;;;;;;;;;28.33;24.77;101942.19;2074921;28;812;-57
2022/05/10 04:36:56;;;;;;;;;;;;;;;28.29;24.22;101937.84;2074973;28;971;-57
2022/05/10 04:37:56;;;;;;;;;;;;;;;28.30;24.55;101931.44;2074973;28;1208;-57
2022/05/10 04:38:56;;;;;;;;;;;;;;;28.31;24.48;101939.53;2075011;28;761;-57
2022/05/10 04:41:24;;;;;;;;;;;;;;;28.42;24.32;101929.97;2075139;28;614;-57
2022/05/10 04:42:24;;;;;;;;;;;;;;;28.49;24.59;101931.41;2075013;28;945;-57
2022/05/10 04:43:25;;;;;;;;;;;;;;;28.49;24.16;101925.97;2082429;28;1177;-57
2022/05/10 04:44:25;;;;;;;;;;;;;;;28.46;24.46;101918.81;2082476;28;1048;-59
2022/05/10 04:45:25;;;;;;;;;;;;;;;28.57;24.41;101920.13;2074984;28;1045;-59
2022/05/10 04:46:26;;;;;;;;;;;;;;;28.61;24.02;101908.09;2074940;28;776;-57
2022/05/10 04:47:26;;;;;;;;;;;;;;;28.60;24.42;101919.97;2074885;28;816;-57
2022/05/10 04:48:27;;;;;;;;;;;;;;;28.70;24.57;101904.91;2074870;28;832;-57
2022/05/10 04:49:28;;;;;;;;;;;;;;;28.62;23.78;101904.41;2074886;28;829;-58
2022/05/10 04:50:28;;;;;;;;;;;;;;;28.69;24.24;101904.00;2074775;28;1959;-57
2022/05/10 04:51:28;;;;;;;;;;;;;;;28.65;24.48;101898.81;2074864;28;752;-57
2022/05/10 04:52:28;;;;;;;;;;;;;;;28.63;23.99;101889.81;2074989;28;855;-57
2022/05/10 04:53:29;;;;;;;;;;;;;;;28.73;24.51;101893.84;2074937;28;674;-57
2022/05/10 04:54:29;;;;;;;;;;;;;;;28.69;24.07;101892.22;2082287;28;891;-57
2022/05/10 04:55:29;;;;;;;;;;;;;;;28.67;24.54;101892.28;2082412;28;840;-57
2022/05/10 04:56:29;;;;;;;;;;;;;;;28.69;24.47;101886.78;2074948;28;1033;-58
2022/05/10 04:57:29;;;;;;;;;;;;;;;28.80;24.44;101887.16;2074813;28;890;-57
2022/05/10 04:58:30;;;;;;;;;;;;;;;28.88;24.22;101881.28;2074200;28;888;-57
2022/05/10 04:59:30;;;;;;;;;;;;;;;28.83;24.38;101886.97;2074758;28;1037;-57
2022/05/10 05:00:30;;;;;;;;;;;;;;;28.97;23.98;101888.06;2074834;28;772;-57
2022/05/10 05:01:31;;;;;;;;;;;;;;;28.90;23.98;101890.25;2074800;28;796;-58
2022/05/10 05:02:31;;;;;;;;;;;;;;;28.93;24.40;101881.00;2074809;28;875;-57
2022/05/10 05:03:32;;;;;;;;;;;;;;;28.83;23.84;101881.53;2074773;28;958;-57
2022/05/10 05:04:32;;;;;;;;;;;;;;;28.99;24.17;101873.41;2074815;28;816;-57
2022/05/10 05:05:32;;;;;;;;;;;;;;;28.88;24.21;101878.53;2074766;28;994;-57
2022/05/10 05:06:34;;;;;;;;;;;;;;;28.76;24.17;101876.47;2074747;28;812;-57
2022/05/10 05:07:34;;;;;;;;;;;;;;;28.78;23.91;101882.72;2075229;28;804;-57
2022/05/10 05:08:34;;;;;;;;;;;;;;;28.78;24.36;101880.00;2075952;28;816;-57
2022/05/10 05:09:35;;;;;;;;;;;;;;;28.83;24.15;101870.63;2074852;28;1439;-58
2022/05/10 05:10:35;;;;;;;;;;;;;;;28.84;23.95;101866.94;2074196;28;1890;-58
2022/05/10 05:11:35;;;;;;;;;;;;;;;28.86;24.07;101866.84;2074671;28;970;-57
2022/05/10 05:12:36;;;;;;;;;;;;;;;28.83;23.89;101865.16;2074737;28;828;-57
2022/05/10 05:13:36;;;;;;;;;;;;;;;29.04;24.01;101862.25;2074815;28;835;-57
2022/05/10 05:14:36;;;;;;;;;;;;;;;29.13;23.30;101864.47;2074779;28;985;-58
2022/05/10 05:15:36;;;;;;;;;;;;;;;29.03;23.92;101852.28;2074754;28;997;-57
2022/05/10 05:16:37;;;;;;;;;;;;;;;29.01;23.73;101859.69;2074744;28;769;-57
2022/05/10 05:17:37;;;;;;;;;;;;;;;28.90;24.37;101853.91;2074763;28;922;-57
2022/05/10 05:18:37;;;;;;;;;;;;;;;28.83;23.82;101859.72;2074777;28;978;-57
2022/05/10 05:19:38;;;;;;;;;;;;;;;28.84;24.10;101856.03;2074754;28;977;-57
2022/05/10 05:20:39;;;;;;;;;;;;;;;28.91;23.13;101853.84;2074803;28;1049;-57
2022/05/10 05:21:40;;;;;;;;;;;;;;;28.86;24.00;101855.94;2082270;28;763;-57
2022/05/10 05:22:40;;;;;;;;;;;;;;;28.95;23.81;101857.28;2082301;28;891;-58
2022/05/10 05:23:40;;;;;;;;;;;;;;;29.05;23.51;101847.63;2074706;28;826;-58
2022/05/10 05:24:40;;;;;;;;;;;;;;;29.07;23.57;101851.16;2074674;28;941;-58
2022/05/10 05:25:41;;;;;;;;;;;;;;;28.89;23.49;101855.78;2074733;28;966;-57
2022/05/10 05:26:42;;;;;;;;;;;;;;;28.72;24.01;101847.56;2074548;28;1085;-57
2022/05/10 05:27:42;;;;;;;;;;;;;;;28.74;23.80;101857.44;2074736;28;858;-58
2022/05/10 05:28:42;;;;;;;;;;;;;;;28.69;24.34;101846.75;2074659;28;1033;-57
2022/05/10 05:29:42;;;;;;;;;;;;;;;28.66;24.07;101848.78;2074585;28;1981;-57
2022/05/10 05:30:43;;;;;;;;;;;;;;;28.73;24.50;101843.88;2074696;28;836;-57
2022/05/10 05:31:43;;;;;;;;;;;;;;;28.76;24.17;101836.47;2074676;28;1001;-57
2022/05/10 05:32:44;;;;;;;;;;;;;;;28.80;24.31;101829.88;2074686;28;1042;-57
2022/05/10 05:33:44;;;;;;;;;;;;;;;28.73;24.36;101839.31;2074644;28;836;-57
2022/05/10 05:34:45;;;;;;;;;;;;;;;28.89;23.68;101836.69;2074700;28;1144;-57
2022/05/10 05:35:45;;;;;;;;;;;;;;;28.62;24.16;101833.53;2074656;28;990;-57